Time;durP1;ratioP1;P1;durP2;ratioP2;P2;SDS_P1;SDS_P2;PMS_P1;PMS_P2;Temp;Humidity;BMP_temperature;BMP_pressure;BME280_temperature;BME280_humidity;BME280_pressure;Samples;Min_cycle;Max_cycle;Signal;HPM_P1;HPM_P2
2022/10/27 00:00:38;;;;;;;10.35;5.88;;;;;;;13.95;90.42;100781.00;5042136;28;20042;-87
2022/10/27 00:03:05;;;;;;;12.93;6.97;;;;;;;13.93;90.95;100777.63;5027226;28;20046;-87
2022/10/27 00:05:33;;;;;;;15.90;6.50;;;;;;;13.89;91.38;100778.84;5027443;28;20060;-86
2022/10/27 00:07:59;;;;;;;14.60;7.38;;;;;;;13.93;91.64;100779.44;5009079;28;20075;-88
2022/10/27 00:10:26;;;;;;;11.20;6.18;;;;;;;13.99;92.03;100782.44;5036040;28;20397;-87
2022/10/27 00:12:53;;;;;;;22.50;6.45;;;;;;;13.98;92.00;100786.06;5043107;28;20045;-87
2022/10/27 00:15:20;;;;;;;11.00;5.80;;;;;;;14.00;91.89;100784.13;5012502;28;20045;-86
2022/10/27 00:17:47;;;;;;;19.15;5.75;;;;;;;13.97;92.40;100792.41;5042580;28;20041;-87
2022/10/27 00:20:14;;;;;;;14.73;7.07;;;;;;;13.96;92.68;100782.69;5020660;28;20123;-86
2022/10/27 00:22:40;;;;;;;32.72;7.72;;;;;;;14.00;91.64;100784.13;5029503;28;20034;-86
2022/10/27 00:25:07;;;;;;;22.42;7.78;;;;;;;13.98;91.45;100783.41;5025213;28;20049;-87
2022/10/27 00:27:34;;;;;;;20.88;7.05;;;;;;;13.97;91.72;100781.72;5043291;28;20440;-87
2022/10/27 00:30:01;;;;;;;31.25;9.02;;;;;;;13.94;91.52;100781.97;5021801;28;20048;-86
2022/10/27 00:32:28;;;;;;;21.15;7.88;;;;;;;13.92;91.67;100791.09;5029354;28;20049;-87
2022/10/27 00:34:55;;;;;;;24.63;8.35;;;;;;;13.89;91.84;100792.19;5043127;28;20045;-86
2022/10/27 00:37:21;;;;;;;69.60;9.15;;;;;;;13.85;91.91;100804.16;5044159;28;20052;-87
2022/10/27 00:39:48;;;;;;;46.00;10.60;;;;;;;13.86;91.90;100793.31;5040910;28;20107;-87
2022/10/27 00:42:15;;;;;;;46.42;7.55;;;;;;;13.85;91.70;100796.97;5009472;28;20044;-86
2022/10/27 00:44:44;;;;;;;39.90;7.45;;;;;;;13.85;91.73;100807.66;5025203;28;20459;-87
2022/10/27 00:47:14;;;;;;;26.75;7.10;;;;;;;13.83;92.60;100798.94;5026185;28;20451;-87
2022/10/27 00:49:52;;;;;;;77.35;10.02;;;;;;;13.72;92.76;100806.19;5040392;28;20053;-86
2022/10/27 00:52:31;;;;;;;55.65;7.82;;;;;;;13.62;93.44;100804.31;5004419;28;20103;-87
2022/10/27 00:55:02;;;;;;;45.65;7.53;;;;;;;13.71;92.77;100805.31;5000419;28;20057;-88
2022/10/27 00:57:30;;;;;;;30.65;7.40;;;;;;;13.72;92.33;100804.38;5028497;28;20041;-88
2022/10/27 00:59:58;;;;;;;41.85;7.07;;;;;;;13.71;92.94;100799.16;5038890;28;20103;-87
2022/10/27 01:02:25;;;;;;;37.08;7.38;;;;;;;13.75;92.27;100811.25;5043155;28;20044;-87
2022/10/27 01:04:56;;;;;;;18.75;6.05;;;;;;;13.73;91.70;100810.53;5025830;28;20047;-86
2022/10/27 01:07:24;;;;;;;20.90;5.80;;;;;;;13.74;91.36;100813.09;5016557;28;20045;-86
2022/10/27 01:09:51;;;;;;;12.18;5.50;;;;;;;13.65;91.09;100801.38;5042564;28;20041;-88
2022/10/27 01:12:18;;;;;;;23.50;6.43;;;;;;;13.66;91.10;100807.53;5036726;28;21464;-87
2022/10/27 01:14:45;;;;;;;11.40;5.32;;;;;;;13.62;91.47;100811.47;5007270;28;20424;-88
2022/10/27 01:17:30;;;;;;;46.55;7.35;;;;;;;13.41;91.51;100814.16;5025411;28;20408;-87
2022/10/27 01:20:21;;;;;;;34.55;6.78;;;;;;;13.50;91.06;100809.84;4992895;28;20068;-86
2022/10/27 01:23:00;;;;;;;32.67;5.95;;;;;;;13.46;90.71;100804.78;5028017;28;20045;-88
2022/10/27 01:25:56;;;;;;;27.95;6.68;;;;;;;13.37;91.85;100797.53;5025815;28;20048;-87
2022/10/27 01:28:45;;;;;;;56.42;6.97;;;;;;;13.39;91.66;100790.25;5007905;28;20045;-87
2022/10/27 01:31:22;;;;;;;45.72;7.05;;;;;;;13.35;91.04;100793.31;4991298;28;21679;-86
2022/10/27 01:34:03;;;;;;;29.30;6.78;;;;;;;13.31;91.77;100790.06;5038106;28;20041;-87
2022/10/27 01:36:51;;;;;;;22.67;6.25;;;;;;;13.32;91.13;100783.75;4987434;28;20064;-86
2022/10/27 01:39:26;;;;;;;19.63;5.57;;;;;;;13.42;90.95;100783.81;4961498;28;20135;-87
2022/10/27 01:42:18;;;;;;;24.52;6.53;;;;;;;13.29;91.39;100788.50;4994744;28;20057;-87
2022/10/27 01:44:48;;;;;;;26.40;6.35;;;;;;;13.40;91.23;100785.75;4989381;28;20400;-86
2022/10/27 01:47:15;;;;;;;39.92;6.53;;;;;;;13.43;91.81;100783.69;5025672;28;20045;-87
2022/10/27 01:49:42;;;;;;;18.50;5.72;;;;;;;13.49;91.35;100778.81;5024007;28;20080;-87
2022/10/27 01:52:36;;;;;;;30.15;5.43;;;;;;;13.29;90.55;100778.69;5004624;28;20049;-87
2022/10/27 01:55:03;;;;;;;38.83;6.43;;;;;;;13.46;90.80;100775.44;4946941;28;20057;-86
2022/10/27 01:58:03;;;;;;;35.40;5.93;;;;;;;13.35;90.67;100779.97;5025528;28;20049;-86
2022/10/27 02:00:45;;;;;;;41.67;6.03;;;;;;;13.31;90.37;100775.91;4979364;28;20077;-87
2022/10/27 02:03:14;;;;;;;22.35;5.63;;;;;;;13.34;90.88;100771.13;4998049;28;20045;-87
2022/10/27 02:05:59;;;;;;;32.30;5.30;;;;;;;13.31;91.08;100778.56;5030893;28;20045;-87
2022/10/27 02:08:33;;;;;;;31.00;5.38;;;;;;;13.19;90.93;100783.91;4998067;28;20503;-87
2022/10/27 02:11:05;;;;;;;43.90;5.82;;;;;;;13.23;90.36;100777.34;5002340;28;20064;-87
2022/10/27 02:13:36;;;;;;;35.33;5.65;;;;;;;13.27;90.38;100777.97;5028440;28;20051;-88
2022/10/27 02:16:10;;;;;;;38.28;5.90;;;;;;;13.17;91.04;100772.53;5010779;28;20099;-87
2022/10/27 02:18:51;;;;;;;30.70;5.10;;;;;;;13.13;90.31;100776.44;5023396;28;20515;-86
2022/10/27 02:21:18;;;;;;;23.08;5.13;;;;;;;13.22;90.42;100772.97;5013164;28;20537;-86
2022/10/27 02:23:45;;;;;;;13.85;4.28;;;;;;;13.22;90.34;100772.13;5024458;28;20100;-87
2022/10/27 02:26:30;;;;;;;15.23;4.50;;;;;;;13.08;90.04;100781.31;5029871;28;20052;-86
2022/10/27 02:29:28;;;;;;;32.42;5.47;;;;;;;13.10;89.85;100771.38;5033127;28;20045;-87
2022/10/27 02:31:56;;;;;;;13.20;5.05;;;;;;;13.19;90.99;100775.06;4987643;28;20065;-87
2022/10/27 02:34:24;;;;;;;19.20;4.97;;;;;;;13.20;90.58;100768.75;5008103;28;20096;-87
2022/10/27 02:36:51;;;;;;;10.82;5.15;;;;;;;13.17;90.49;100764.50;5029963;28;20097;-87
2022/10/27 02:39:17;;;;;;;18.38;4.88;;;;;;;13.15;90.27;100766.50;5027394;28;20046;-87
2022/10/27 02:41:44;;;;;;;14.07;4.40;;;;;;;13.16;90.26;100768.16;5041757;28;20045;-87
2022/10/27 02:44:11;;;;;;;33.95;5.03;;;;;;;13.11;90.24;100774.88;5029976;28;20187;-86
2022/10/27 02:46:37;;;;;;;21.40;4.70;;;;;;;13.09;90.92;100777.66;5024346;28;20492;-86
2022/10/27 02:49:04;;;;;;;35.95;5.50;;;;;;;13.12;89.95;100772.06;5028031;28;20493;-86
2022/10/27 02:51:31;;;;;;;59.67;6.32;;;;;;;13.09;90.27;100774.16;5040971;28;21489;-87
2022/10/27 02:53:57;;;;;;;25.67;4.97;;;;;;;13.10;90.13;100768.72;5032882;28;20049;-86
2022/10/27 02:56:24;;;;;;;22.88;5.32;;;;;;;13.05;90.56;100768.22;5010818;28;20103;-87
2022/10/27 02:58:51;;;;;;;38.70;5.35;;;;;;;13.03;90.38;100773.69;5039958;28;20046;-86
2022/10/27 03:01:18;;;;;;;14.63;4.22;;;;;;;13.06;90.40;100769.09;5016143;28;20048;-86
2022/10/27 03:03:45;;;;;;;13.43;4.50;;;;;;;12.99;90.50;100764.25;5043383;28;20427;-86
2022/10/27 03:06:11;;;;;;;26.83;4.45;;;;;;;13.00;90.09;100770.41;5007317;28;20055;-86
2022/10/27 03:08:38;;;;;;;26.63;5.25;;;;;;;12.94;90.50;100769.13;5012171;28;20053;-86
2022/10/27 03:11:05;;;;;;;17.02;5.05;;;;;;;13.00;90.47;100775.75;5027332;28;20072;-87
2022/10/27 03:13:31;;;;;;;21.88;4.88;;;;;;;12.98;90.46;100773.22;5028630;28;20041;-86
2022/10/27 03:15:58;;;;;;;32.25;4.68;;;;;;;12.93;90.69;100779.94;5026605;28;20049;-86
2022/10/27 03:18:25;;;;;;;6.45;3.92;;;;;;;12.90;90.89;100782.81;5021121;28;22479;-87
2022/10/27 03:20:52;;;;;;;9.48;4.03;;;;;;;12.96;90.12;100790.34;5007513;28;20095;-85
2022/10/27 03:23:18;;;;;;;12.02;4.28;;;;;;;12.97;90.17;100784.84;5043141;28;20071;-86
2022/10/27 03:25:45;;;;;;;21.63;4.97;;;;;;;12.92;90.10;100787.06;5021458;28;20104;-86
2022/10/27 03:28:14;;;;;;;9.93;3.78;;;;;;;12.91;90.19;100789.88;5035792;28;20041;-86
2022/10/27 03:30:40;;;;;;;12.35;4.38;;;;;;;12.92;89.88;100794.22;5027997;28;20496;-86
2022/10/27 03:33:07;;;;;;;11.40;3.53;;;;;;;12.93;89.89;100790.59;5035119;28;20446;-86
2022/10/27 03:35:34;;;;;;;7.30;3.72;;;;;;;12.91;90.07;100793.38;5036883;28;20052;-86
2022/10/27 03:38:01;;;;;;;6.95;4.07;;;;;;;12.94;89.82;100795.78;5026461;28;20049;-85
2022/10/27 03:40:28;;;;;;;7.13;3.95;;;;;;;12.90;89.56;100789.03;5023100;28;20145;-85
2022/10/27 03:42:58;;;;;;;6.93;4.57;;;;;;;12.92;88.93;100795.06;5038474;28;20139;-85
2022/10/27 03:45:25;;;;;;;6.72;3.85;;;;;;;12.89;89.03;100799.81;5020443;28;20045;-85
2022/10/27 03:48:03;;;;;;;6.63;3.15;;;;;;;12.67;87.60;100801.59;5007253;28;20056;-85
2022/10/27 03:50:30;;;;;;;4.80;3.42;;;;;;;12.84;88.43;100784.19;4989668;28;20053;-86
2022/10/27 03:52:56;;;;;;;7.28;4.07;;;;;;;12.83;88.72;100785.19;5023329;28;20045;-85
2022/10/27 03:55:23;;;;;;;8.15;3.97;;;;;;;12.88;88.64;100787.47;5025545;28;20455;-85
2022/10/27 03:57:50;;;;;;;7.45;3.80;;;;;;;12.86;87.81;100778.75;5024359;28;20147;-85
2022/10/27 04:00:17;;;;;;;6.38;4.25;;;;;;;12.84;87.57;100786.84;5042796;28;20048;-85
2022/10/27 04:02:44;;;;;;;6.60;4.32;;;;;;;12.84;87.53;100788.69;5024633;28;20045;-85
2022/10/27 04:05:10;;;;;;;8.63;3.90;;;;;;;12.81;87.92;100784.44;5027253;28;20049;-84
2022/10/27 04:07:37;;;;;;;9.10;4.57;;;;;;;12.74;88.24;100785.91;5038606;28;20051;-85
2022/10/27 04:10:08;;;;;;;7.75;4.10;;;;;;;12.74;88.13;100784.09;5018901;28;20099;-85
2022/10/27 04:12:35;;;;;;;12.57;4.57;;;;;;;12.74;88.33;100786.75;5033302;28;20559;-86
2022/10/27 04:15:01;;;;;;;17.42;4.38;;;;;;;12.78;88.51;100776.72;5036972;28;20451;-84
2022/10/27 04:17:29;;;;;;;11.60;4.57;;;;;;;12.78;88.52;100777.56;5025590;28;20488;-85
2022/10/27 04:19:55;;;;;;;10.05;3.92;;;;;;;12.74;87.81;100773.44;5015798;28;20045;-85
2022/10/27 04:22:22;;;;;;;10.93;3.80;;;;;;;12.76;87.72;100776.00;5034065;28;20096;-85
2022/10/27 04:24:49;;;;;;;9.40;4.70;;;;;;;12.73;88.08;100763.75;5020304;28;20052;-85
2022/10/27 04:27:16;;;;;;;12.85;4.85;;;;;;;12.67;87.53;100772.28;5007266;28;20045;-85
2022/10/27 04:29:42;;;;;;;13.23;4.90;;;;;;;12.68;86.87;100760.63;5027272;28;20049;-84
2022/10/27 04:32:09;;;;;;;14.35;5.55;;;;;;;12.68;86.61;100771.28;5019649;28;20049;-85
2022/10/27 04:34:36;;;;;;;20.08;4.82;;;;;;;12.62;86.74;100771.81;5023965;28;20041;-85
2022/10/27 04:37:02;;;;;;;18.27;5.22;;;;;;;12.58;87.21;100771.19;5002616;28;20072;-85
2022/10/27 04:39:29;;;;;;;14.23;4.68;;;;;;;12.58;87.82;100767.69;5021457;28;20045;-85
2022/10/27 04:41:56;;;;;;;16.05;6.07;;;;;;;12.55;88.13;100775.94;5034289;28;20131;-85
2022/10/27 04:44:23;;;;;;;29.88;6.47;;;;;;;12.59;88.06;100769.38;5021953;28;20041;-84
2022/10/27 04:46:49;;;;;;;9.10;3.85;;;;;;;12.56;88.11;100774.94;5007171;28;20036;-85
2022/10/27 04:49:16;;;;;;;14.43;4.93;;;;;;;12.59;88.19;100780.03;5025829;28;20133;-85
2022/10/27 04:51:43;;;;;;;16.48;5.47;;;;;;;12.57;88.18;100779.34;5023412;28;20059;-84
2022/10/27 04:54:09;;;;;;;9.85;5.80;;;;;;;12.57;88.18;100771.34;5007119;28;20581;-85
2022/10/27 04:56:36;;;;;;;10.55;6.32;;;;;;;12.61;88.61;100775.44;5006435;28;20053;-85
2022/10/27 04:59:03;;;;;;;23.20;6.05;;;;;;;12.66;88.13;100788.38;5040444;28;20048;-85
2022/10/27 05:01:29;;;;;;;13.07;5.82;;;;;;;12.68;87.55;100778.44;5019191;28;20105;-85
2022/10/27 05:03:56;;;;;;;13.20;5.53;;;;;;;12.65;87.90;100786.69;5024188;28;20038;-85
2022/10/27 05:06:23;;;;;;;26.02;6.28;;;;;;;12.62;88.28;100787.78;5008905;28;20052;-85
2022/10/27 05:08:50;;;;;;;29.73;6.55;;;;;;;12.57;88.56;100787.31;5030491;28;20544;-86
2022/10/27 05:11:17;;;;;;;16.92;5.75;;;;;;;12.57;88.53;100784.66;5018881;28;20087;-84
2022/10/27 05:13:48;;;;;;;18.42;6.15;;;;;;;12.52;87.97;100787.69;5020253;28;20111;-85
2022/10/27 05:16:15;;;;;;;13.48;5.28;;;;;;;12.58;88.22;100789.00;5039172;28;20586;-85
2022/10/27 05:18:41;;;;;;;19.63;5.50;;;;;;;12.51;86.65;100787.81;5036369;28;20500;-85
2022/10/27 05:21:08;;;;;;;11.48;5.25;;;;;;;12.45;86.51;100788.31;5022193;28;20563;-85
2022/10/27 05:23:35;;;;;;;17.13;5.10;;;;;;;12.41;86.21;100795.69;5039798;28;20460;-85
2022/10/27 05:26:01;;;;;;;12.38;5.90;;;;;;;12.39;86.39;100792.34;5032383;28;20474;-86
2022/10/27 05:28:28;;;;;;;16.20;6.30;;;;;;;12.35;86.36;100796.19;5029154;28;20069;-85
2022/10/27 05:30:58;;;;;;;18.55;5.88;;;;;;;12.24;85.93;100788.25;5039502;28;20447;-83
2022/10/27 05:33:26;;;;;;;24.35;6.18;;;;;;;12.24;86.15;100785.56;5037371;28;20127;-84
2022/10/27 05:35:52;;;;;;;24.13;6.40;;;;;;;12.27;86.81;100785.31;5032111;28;20438;-84
2022/10/27 05:38:19;;;;;;;22.25;6.15;;;;;;;12.26;87.09;100784.47;5036099;28;20128;-83
2022/10/27 05:40:46;;;;;;;19.17;6.85;;;;;;;12.24;87.10;100789.09;5039213;28;20045;-83
2022/10/27 05:43:12;;;;;;;25.13;6.90;;;;;;;12.22;86.72;100784.84;5038830;28;20052;-84
2022/10/27 05:45:39;;;;;;;25.63;9.07;;;;;;;12.16;86.72;100787.03;5043845;28;20103;-86
2022/10/27 05:48:07;;;;;;;19.17;8.48;;;;;;;12.22;85.94;100788.34;5034177;28;20586;-83
2022/10/27 05:50:34;;;;;;;20.27;8.60;;;;;;;12.14;86.43;100786.31;5043605;28;20044;-83
2022/10/27 05:53:01;;;;;;;15.15;6.90;;;;;;;12.11;86.67;100781.22;5016945;28;20500;-83
2022/10/27 05:55:27;;;;;;;19.13;7.05;;;;;;;12.11;86.47;100780.34;5042197;28;20512;-83
2022/10/27 05:57:56;;;;;;;17.65;7.35;;;;;;;12.04;85.38;100781.84;5041429;28;20103;-83
2022/10/27 06:00:25;;;;;;;10.77;6.30;;;;;;;12.02;85.50;100773.13;5021360;28;20156;-83
2022/10/27 06:02:55;;;;;;;10.82;4.70;;;;;;;11.97;85.44;100769.97;5023244;28;20381;-83
2022/10/27 06:05:22;;;;;;;10.02;5.20;;;;;;;12.02;85.37;100773.97;5042940;28;20080;-83
2022/10/27 06:07:49;;;;;;;13.02;5.75;;;;;;;12.07;84.91;100769.13;5036992;28;20045;-81
2022/10/27 06:10:16;;;;;;;12.82;6.75;;;;;;;12.13;84.61;100773.94;5019154;28;20048;-81
2022/10/27 06:12:43;;;;;;;14.82;7.07;;;;;;;12.10;84.72;100776.84;5032041;28;20484;-81
2022/10/27 06:15:10;;;;;;;14.85;7.50;;;;;;;12.13;84.63;100768.63;5038247;28;20057;-81
2022/10/27 06:17:37;;;;;;;15.80;6.72;;;;;;;12.16;84.70;100780.84;5051671;28;20053;-81
2022/10/27 06:20:04;;;;;;;18.42;7.30;;;;;;;12.14;84.48;100780.97;5039557;28;20549;-81
2022/10/27 06:22:31;;;;;;;13.82;6.85;;;;;;;12.14;84.50;100780.97;5035614;28;20053;-81
2022/10/27 06:24:57;;;;;;;17.45;8.25;;;;;;;12.13;84.39;100784.59;5030988;28;20067;-82
2022/10/27 06:27:24;;;;;;;22.08;8.05;;;;;;;12.14;84.13;100791.63;5044011;28;20492;-81
2022/10/27 06:29:51;;;;;;;18.40;7.65;;;;;;;12.12;84.13;100790.06;5030202;28;20103;-81
2022/10/27 06:32:17;;;;;;;14.13;7.15;;;;;;;12.07;84.21;100794.91;5044701;28;20083;-83
2022/10/27 06:34:44;;;;;;;20.23;6.60;;;;;;;12.06;84.45;100796.72;5024487;28;20044;-83
2022/10/27 06:37:11;;;;;;;13.20;6.00;;;;;;;12.12;84.58;100798.03;5029609;28;20069;-81
2022/10/27 06:39:40;;;;;;;18.90;5.60;;;;;;;12.10;85.26;100792.00;5037777;28;20508;-81
2022/10/27 06:42:06;;;;;;;14.13;5.72;;;;;;;12.14;85.12;100798.78;5033687;28;20080;-82
2022/10/27 06:44:33;;;;;;;11.77;5.88;;;;;;;12.18;85.34;100807.34;5047774;28;20061;-81
2022/10/27 06:47:00;;;;;;;15.73;5.25;;;;;;;12.16;85.58;100805.66;5041953;28;20042;-83
2022/10/27 06:49:26;;;;;;;16.88;5.50;;;;;;;12.17;85.66;100798.53;5032838;28;20519;-82
2022/10/27 06:51:54;;;;;;;10.55;5.45;;;;;;;12.19;85.67;100801.91;5038685;28;20378;-83
2022/10/27 06:54:20;;;;;;;14.27;5.05;;;;;;;12.29;85.27;100807.34;5041053;28;20060;-83
2022/10/27 06:56:47;;;;;;;14.23;6.13;;;;;;;12.25;84.42;100808.56;5035366;28;20412;-83
2022/10/27 06:59:14;;;;;;;12.07;5.38;;;;;;;12.22;84.69;100806.16;5028998;28;20144;-84
2022/10/27 07:01:41;;;;;;;14.18;5.65;;;;;;;12.21;85.15;100812.41;5043771;28;20065;-83
2022/10/27 07:04:07;;;;;;;14.25;5.57;;;;;;;12.26;85.48;100813.78;5041044;28;20412;-84
2022/10/27 07:06:34;;;;;;;18.33;6.07;;;;;;;12.24;85.51;100809.53;5037194;28;20053;-83
2022/10/27 07:09:01;;;;;;;14.85;6.30;;;;;;;12.25;85.42;100817.38;5027427;28;20052;-83
2022/10/27 07:11:33;;;;;;;17.65;5.88;;;;;;;12.30;85.65;100811.69;5035930;28;20496;-84
2022/10/27 07:13:59;;;;;;;11.20;5.97;;;;;;;12.30;85.22;100817.88;5040174;28;20065;-83
2022/10/27 07:16:26;;;;;;;18.85;5.68;;;;;;;12.28;84.59;100813.63;5041598;28;20071;-82
2022/10/27 07:19:00;;;;;;;12.48;6.25;;;;;;;12.28;85.47;100805.66;5041432;28;20059;-78
2022/10/27 07:21:28;;;;;;;14.13;5.40;;;;;;;12.26;85.35;100811.13;5031459;28;20045;-78
2022/10/27 07:23:54;;;;;;;14.95;6.55;;;;;;;12.32;85.55;100809.78;5032366;28;20095;-77
2022/10/27 07:26:21;;;;;;;16.30;6.80;;;;;;;12.36;85.56;100816.53;5034832;28;20068;-78
2022/10/27 07:28:48;;;;;;;17.90;6.38;;;;;;;12.37;85.79;100818.25;5017083;28;20190;-78
2022/10/27 07:31:14;;;;;;;15.35;6.15;;;;;;;12.41;85.92;100826.81;5036800;28;20460;-78
2022/10/27 07:33:41;;;;;;;14.57;6.32;;;;;;;12.49;85.72;100835.91;5014890;28;20053;-78
2022/10/27 07:36:08;;;;;;;18.10;6.22;;;;;;;12.49;85.79;100837.69;5030827;28;20084;-79
2022/10/27 07:38:35;;;;;;;14.10;7.60;;;;;;;12.40;85.87;100841.94;5041553;28;20568;-79
2022/10/27 07:41:01;;;;;;;15.52;7.00;;;;;;;12.39;85.65;100840.28;5043372;28;20049;-78
2022/10/27 07:43:28;;;;;;;23.77;7.45;;;;;;;12.44;85.40;100837.22;5026713;28;20057;-78
2022/10/27 07:45:55;;;;;;;15.48;7.60;;;;;;;12.41;85.76;100837.47;5022219;28;20037;-78
2022/10/27 07:48:21;;;;;;;20.92;6.93;;;;;;;12.47;85.48;100844.97;5027987;28;20373;-79
2022/10/27 07:50:48;;;;;;;22.27;8.32;;;;;;;12.55;85.55;100853.19;5022706;28;20488;-78
2022/10/27 07:53:16;;;;;;;20.63;8.15;;;;;;;12.56;85.40;100849.56;5039578;28;20040;-78
2022/10/27 07:55:43;;;;;;;15.93;7.88;;;;;;;12.61;85.50;100847.38;5034542;28;20391;-78
2022/10/27 07:58:14;;;;;;;18.73;7.60;;;;;;;12.60;85.73;100849.19;5041782;28;20069;-79
2022/10/27 08:00:43;;;;;;;19.95;8.35;;;;;;;12.66;85.72;100844.34;5025145;28;20058;-79
2022/10/27 08:03:17;;;;;;;15.50;6.78;;;;;;;12.63;86.02;100853.44;5046006;28;20044;-78
2022/10/27 08:05:44;;;;;;;17.35;7.43;;;;;;;12.60;86.29;100849.19;5020117;28;20550;-78
2022/10/27 08:08:11;;;;;;;23.80;8.63;;;;;;;12.73;85.99;100854.38;5007236;28;20053;-78
2022/10/27 08:10:39;;;;;;;20.95;8.00;;;;;;;12.77;86.13;100855.81;5009822;28;20067;-78
2022/10/27 08:13:07;;;;;;;18.33;7.97;;;;;;;12.75;86.71;100862.25;5029847;28;20045;-78
2022/10/27 08:15:35;;;;;;;23.27;8.32;;;;;;;12.82;86.66;100852.75;5020321;28;20104;-79
2022/10/27 08:18:02;;;;;;;25.05;9.85;;;;;;;12.77;86.87;100857.63;5022850;28;20475;-78
2022/10/27 08:20:36;;;;;;;27.23;10.07;;;;;;;12.83;86.79;100857.13;5025200;28;20036;-77
2022/10/27 08:23:05;;;;;;;31.60;9.35;;;;;;;12.88;86.87;100862.09;5017959;28;20050;-79
2022/10/27 08:25:32;;;;;;;23.02;9.15;;;;;;;12.96;86.48;100860.50;5022341;28;20052;-77
2022/10/27 08:27:59;;;;;;;23.90;9.52;;;;;;;12.92;87.13;100853.69;5046472;28;20487;-79
2022/10/27 08:30:28;;;;;;;24.02;9.48;;;;;;;12.99;87.08;100856.72;5018452;28;20048;-78
2022/10/27 08:33:01;;;;;;;22.30;9.90;;;;;;;13.03;87.56;100852.84;5026592;28;20052;-78
2022/10/27 08:35:30;;;;;;;24.42;8.68;;;;;;;13.07;87.74;100848.94;5029312;28;20048;-79
2022/10/27 08:38:01;;;;;;;23.60;9.00;;;;;;;13.20;87.54;100841.63;5026692;28;20045;-79
2022/10/27 08:40:33;;;;;;;24.05;8.82;;;;;;;13.23;88.17;100852.03;5018422;28;20041;-78
2022/10/27 08:43:13;;;;;;;18.90;9.55;;;;;;;13.21;88.56;100850.47;5023651;28;20401;-78
2022/10/27 08:45:51;;;;;;;30.25;9.85;;;;;;;13.25;88.08;100846.56;5002785;28;20409;-78
2022/10/27 08:48:23;;;;;;;19.38;8.07;;;;;;;13.35;87.79;100857.34;5004696;28;20096;-79
2022/10/27 08:50:50;;;;;;;24.17;9.13;;;;;;;13.41;88.13;100847.00;5036354;28;20075;-78
2022/10/27 08:53:27;;;;;;;19.52;8.43;;;;;;;13.45;88.23;100844.91;5040117;28;20041;-79
2022/10/27 08:56:01;;;;;;;20.02;8.80;;;;;;;13.52;88.32;100854.09;5012290;28;20438;-78
2022/10/27 08:58:37;;;;;;;19.88;8.05;;;;;;;13.57;88.31;100857.22;4968021;28;20046;-82
2022/10/27 09:01:34;;;;;;;17.95;8.00;;;;;;;13.60;89.05;100848.09;5032242;28;20448;-78
2022/10/27 09:04:23;;;;;;;16.95;7.20;;;;;;;13.70;88.90;100845.50;4964967;28;20057;-79
2022/10/27 09:06:58;;;;;;;14.55;6.90;;;;;;;13.71;89.12;100847.19;5004706;28;20064;-79
2022/10/27 09:09:51;;;;;;;16.25;7.55;;;;;;;13.74;89.12;100846.91;5035281;28;20546;-78
2022/10/27 09:12:25;;;;;;;;;;;;;;;13.65;90.59;100844.06;4994898;28;20382;-79
2022/10/27 09:15:20;;;;;;;17.98;6.45;;;;;;;13.76;89.73;100844.97;5015929;28;19935;-79
2022/10/27 09:18:11;;;;;;;12.13;5.93;;;;;;;13.81;90.18;100842.75;4996616;28;20111;-79
2022/10/27 09:20:53;;;;;;;15.32;6.32;;;;;;;13.86;89.50;100840.53;4998835;28;20045;-79
2022/10/27 09:23:29;;;;;;;15.85;6.10;;;;;;;13.93;89.00;100828.34;5028668;28;20071;-79
2022/10/27 09:25:56;;;;;;;14.32;5.97;;;;;;;14.02;89.13;100832.91;4990887;28;20049;-79
2022/10/27 09:28:40;;;;;;;12.13;5.75;;;;;;;14.00;90.08;100839.34;5027525;28;20049;-79
2022/10/27 09:31:12;;;;;;;14.32;6.30;;;;;;;14.09;89.73;100836.72;5028279;28;20053;-79
2022/10/27 09:33:48;;;;;;;13.07;6.53;;;;;;;14.13;90.02;100839.13;5045649;28;20045;-78
2022/10/27 09:36:15;;;;;;;15.40;5.68;;;;;;;14.20;90.06;100826.94;4995916;28;20053;-79
2022/10/27 09:38:42;;;;;;;12.93;6.55;;;;;;;14.23;90.26;100834.66;5024144;28;20115;-78
2022/10/27 09:41:09;;;;;;;13.90;6.22;;;;;;;14.24;90.27;100831.00;5044730;28;20037;-78
2022/10/27 09:43:36;;;;;;;12.02;5.60;;;;;;;14.27;90.38;100822.72;5045484;28;20052;-78
2022/10/27 09:46:06;;;;;;;12.70;5.30;;;;;;;14.30;90.35;100825.16;5032085;28;20052;-78
2022/10/27 09:48:33;;;;;;;13.63;6.15;;;;;;;14.34;90.82;100824.72;5044447;28;20044;-79
2022/10/27 09:51:07;;;;;;;12.30;5.32;;;;;;;14.34;91.14;100822.03;5042756;28;20045;-79
2022/10/27 09:53:49;;;;;;;10.73;5.40;;;;;;;14.36;91.04;100818.41;5029086;28;20488;-79
2022/10/27 09:56:31;;;;;;;13.00;6.47;;;;;;;14.41;91.35;100811.66;4988282;28;20049;-81
2022/10/27 09:59:01;;;;;;;26.88;8.82;;;;;;;14.46;91.90;100803.25;5027134;28;20096;-79
2022/10/27 10:01:48;;;;;;;30.38;8.68;;;;;;;14.42;92.46;100809.84;5022308;28;20131;-79
2022/10/27 10:04:26;;;;;;;14.15;6.05;;;;;;;14.48;92.69;100803.97;4982340;28;20124;-78
2022/10/27 10:06:58;;;;;;;11.23;5.43;;;;;;;14.54;92.04;100811.44;4992254;28;20045;-79
2022/10/27 10:09:35;;;;;;;9.87;5.33;;;;;;;14.58;92.59;100806.66;5024342;28;20076;-79
2022/10/27 10:12:21;;;;;;;9.15;4.88;;;;;;;14.57;92.80;100811.16;4966216;28;20056;-79
2022/10/27 10:14:51;;;;;;;12.93;4.60;;;;;;;14.68;92.29;100813.72;4996486;28;20045;-79
2022/10/27 10:17:23;;;;;;;8.77;4.40;;;;;;;14.69;92.37;100804.72;5039336;28;20045;-79
2022/10/27 10:19:52;;;;;;;7.75;4.43;;;;;;;14.76;92.41;100805.00;5026154;28;20091;-80
2022/10/27 10:22:27;;;;;;;14.48;5.07;;;;;;;14.81;92.91;100797.41;5027813;28;20041;-78
2022/10/27 10:24:56;;;;;;;15.77;4.78;;;;;;;14.85;92.83;100801.50;5007535;28;20096;-79
2022/10/27 10:27:27;;;;;;;13.20;5.68;;;;;;;14.90;93.59;100799.25;5032014;28;20091;-79
2022/10/27 10:29:54;;;;;;;11.23;5.10;;;;;;;14.94;93.54;100797.16;5029564;28;20047;-78
2022/10/27 10:32:46;;;;;;;11.75;5.63;;;;;;;14.89;93.92;100799.41;5035881;28;20076;-79
2022/10/27 10:35:44;;;;;;;9.88;4.32;;;;;;;14.94;94.00;100791.78;4977099;28;20099;-79
2022/10/27 10:38:23;;;;;;;8.80;4.40;;;;;;;14.98;93.65;100796.72;4964187;28;20041;-79
2022/10/27 10:41:01;;;;;;;9.05;5.05;;;;;;;15.05;94.06;100788.13;4998857;28;20067;-79
2022/10/27 10:43:28;;;;;;;9.88;3.75;;;;;;;15.13;93.71;100781.06;5006902;28;20087;-78
2022/10/27 10:45:55;;;;;;;13.05;5.05;;;;;;;15.17;93.80;100771.78;5006669;28;20041;-79
2022/10/27 10:48:37;;;;;;;10.60;5.25;;;;;;;15.17;94.01;100776.31;5033682;28;20071;-79
2022/10/27 10:51:05;;;;;;;13.30;4.13;;;;;;;15.24;93.69;100780.09;4978196;28;20342;-80
2022/10/27 10:53:35;;;;;;;12.25;4.55;;;;;;;15.29;93.26;100777.84;5021194;28;20124;-79
2022/10/27 10:56:05;;;;;;;11.32;5.10;;;;;;;15.32;93.46;100774.03;5039753;28;20083;-79
2022/10/27 10:58:34;;;;;;;15.30;4.57;;;;;;;15.34;93.66;100767.56;5043363;28;20045;-79
2022/10/27 11:01:04;;;;;;;13.07;5.35;;;;;;;15.38;93.29;100774.28;5023433;28;20497;-79
2022/10/27 11:03:34;;;;;;;12.48;4.53;;;;;;;15.44;92.65;100761.31;5017457;28;20045;-79
2022/10/27 11:06:03;;;;;;;9.70;4.07;;;;;;;15.47;92.90;100756.53;4989255;28;1120669;-79
2022/10/27 11:08:36;;;;;;;14.43;4.43;;;;;;;15.50;92.58;100756.22;5025894;28;20456;-79
2022/10/27 11:11:19;;;;;;;9.20;4.00;;;;;;;15.51;92.05;100754.41;5008057;28;20480;-79
2022/10/27 11:13:55;;;;;;;13.20;4.70;;;;;;;15.55;92.65;100756.66;5033356;28;20899;-79
2022/10/27 11:16:23;;;;;;;12.38;5.32;;;;;;;15.63;92.79;100756.75;5012018;28;20040;-79
2022/10/27 11:19:00;;;;;;;13.55;4.25;;;;;;;15.68;92.60;100763.50;4992558;28;20048;-79
2022/10/27 11:21:29;;;;;;;11.40;4.82;;;;;;;15.75;92.92;100756.63;5018952;28;20441;-81
2022/10/27 11:23:59;;;;;;;13.23;5.63;;;;;;;15.78;92.66;100742.94;5040792;28;20477;-79
2022/10/27 11:26:31;;;;;;;11.82;5.50;;;;;;;15.80;92.55;100752.50;5011718;28;20456;-79
2022/10/27 11:29:02;;;;;;;11.82;5.30;;;;;;;15.84;92.74;100745.84;5006534;28;20466;-80
2022/10/27 11:31:47;;;;;;;19.40;5.72;;;;;;;15.83;92.95;100740.66;5029354;28;20057;-80
2022/10/27 11:34:23;;;;;;;12.98;5.00;;;;;;;15.89;92.69;100739.22;5008064;28;20500;-79